Time;durP1;ratioP1;P1;durP2;ratioP2;P2;SDS_P1;SDS_P2;PMS_P1;PMS_P2;Temp;Humidity;BMP_temperature;BMP_pressure;BME280_temperature;BME280_humidity;BME280_pressure;Samples;Min_cycle;Max_cycle;Signal;HPM_P1;HPM_P2
2022/01/25 00:24:17;;;;;;;184.83;81.77;;;;;;;;;;4954691;28;20442;-80
2022/01/25 00:26:31;;;;;;;198.90;86.87;;;;;;;;;;4954368;28;20523;-80
2022/01/25 00:29:29;;;;;;;191.90;85.17;;;;;;;;;;4953695;28;21485;-80
2022/01/25 00:31:43;;;;;;;217.47;89.47;;;;;;;;;;4953601;28;21267;-80
2022/01/25 00:34:10;;;;;;;201.90;85.23;;;;;;;;;;4967369;28;20866;-80
2022/01/25 00:36:36;;;;;;;264.33;98.43;;;;;;;;;;4951653;28;20426;-80
2022/01/25 00:39:04;;;;;;;216.03;94.17;;;;;;;;;;4953608;28;21006;-81
2022/01/25 00:41:30;;;;;;;197.33;86.30;;;;;;;;;;4966797;28;20433;-81
2022/01/25 00:43:59;;;;;;;178.40;81.70;;;;;;;;;;4955447;28;20429;-81
2022/01/25 00:46:25;;;;;;;188.50;81.97;;;;;;;;;;4956405;28;20430;-81
2022/01/25 00:48:55;;;;;;;214.10;89.13;;;;;;;;;;4956775;28;20449;-79
2022/01/25 00:53:58;;;;;;;209.97;88.70;;;;;;;;;;4954418;28;20500;-79
2022/01/25 00:56:25;;;;;;;229.30;92.93;;;;;;;;;;4953795;28;20434;-79
2022/01/25 00:58:52;;;;;;;198.77;88.00;;;;;;;;;;4955133;28;20491;-79
2022/01/25 01:01:18;;;;;;;232.30;94.03;;;;;;;;;;4954867;28;20433;-79
2022/01/25 01:03:45;;;;;;;248.87;98.17;;;;;;;;;;4952899;28;21349;-79
2022/01/25 01:06:11;;;;;;;191.67;83.53;;;;;;;;;;4953538;28;20573;-79
2022/01/25 01:08:37;;;;;;;219.30;89.13;;;;;;;;;;4955458;28;20492;-79
2022/01/25 01:11:07;;;;;;;249.37;95.00;;;;;;;;;;4953118;28;20422;-79
2022/01/25 01:46:01;;;;;;;256.93;95.50;;;;;;;;;;4960691;28;21139;-81
2022/01/25 01:48:34;;;;;;;244.00;95.43;;;;;;;;;;4955670;28;20451;-81
2022/01/25 01:51:06;;;;;;;302.47;105.93;;;;;;;;;;4956769;28;20426;-81
2022/01/25 01:53:33;;;;;;;268.90;98.87;;;;;;;;;;4956787;28;20410;-81
2022/01/25 01:55:59;;;;;;;288.97;100.70;;;;;;;;;;4956212;28;20431;-81
2022/01/25 01:58:25;;;;;;;254.43;96.80;;;;;;;;;;4955628;28;20453;-81
2022/01/25 02:00:52;;;;;;;279.93;102.17;;;;;;;;;;4956359;28;20568;-80
2022/01/25 02:03:18;;;;;;;276.07;99.77;;;;;;;;;;4957881;28;21263;-81
2022/01/25 02:05:44;;;;;;;268.77;102.13;;;;;;;;;;4959353;28;20445;-81
2022/01/25 02:08:11;;;;;;;246.00;97.87;;;;;;;;;;4955773;28;20426;-80
2022/01/25 02:10:37;;;;;;;269.07;98.73;;;;;;;;;;4956683;28;20457;-81
2022/01/25 02:13:05;;;;;;;235.47;95.27;;;;;;;;;;4954851;28;20438;-81
2022/01/25 02:15:31;;;;;;;209.47;91.57;;;;;;;;;;4955563;28;23604;-81
2022/01/25 02:23:18;;;;;;;250.47;100.27;;;;;;;;;;4954449;28;20462;-81
2022/01/25 02:25:44;;;;;;;252.67;98.93;;;;;;;;;;4957751;28;20516;-81
2022/01/25 02:28:10;;;;;;;256.47;102.37;;;;;;;;;;4956806;28;21188;-80
2022/01/25 02:30:36;;;;;;;260.33;101.83;;;;;;;;;;4957398;28;20417;-80
2022/01/25 02:33:03;;;;;;;245.10;97.90;;;;;;;;;;4954273;28;20419;-79
2022/01/25 02:35:29;;;;;;;236.20;94.67;;;;;;;;;;4956025;28;20517;-79
2022/01/25 02:37:55;;;;;;;250.87;101.07;;;;;;;;;;4951646;28;20508;-79
2022/01/25 02:40:21;;;;;;;239.47;95.97;;;;;;;;;;4953479;28;21275;-79
2022/01/25 02:42:47;;;;;;;240.20;96.70;;;;;;;;;;4951119;28;20453;-79
2022/01/25 02:45:16;;;;;;;230.70;95.53;;;;;;;;;;4951368;28;20426;-79
2022/01/25 02:50:27;;;;;;;228.73;94.43;;;;;;;;;;4953657;28;20429;-79
2022/01/25 02:52:54;;;;;;;223.53;94.17;;;;;;;;;;4954315;28;20477;-79
2022/01/25 02:55:20;;;;;;;225.97;97.10;;;;;;;;;;4953712;28;20426;-79
2022/01/25 02:57:46;;;;;;;266.97;103.27;;;;;;;;;;4955292;28;20418;-79
2022/01/25 03:00:13;;;;;;;272.47;104.83;;;;;;;;;;4954574;28;21243;-79
2022/01/25 03:02:39;;;;;;;277.97;105.67;;;;;;;;;;4968254;28;20465;-79
2022/01/25 03:05:06;;;;;;;259.00;101.30;;;;;;;;;;4955208;28;20436;-79
2022/01/25 03:07:33;;;;;;;241.67;100.20;;;;;;;;;;4950496;28;20438;-79
2022/01/25 03:10:00;;;;;;;252.87;101.03;;;;;;;;;;4953919;28;21934;-79
2022/01/25 03:12:43;;;;;;;260.30;103.03;;;;;;;;;;4954075;28;20516;-79
2022/01/25 03:17:47;;;;;;;225.47;95.23;;;;;;;;;;4954748;28;20481;-81
2022/01/25 03:20:21;;;;;;;250.83;99.17;;;;;;;;;;4955850;28;20421;-81
2022/01/25 03:25:19;;;;;;;286.80;108.43;;;;;;;;;;4956622;28;20406;-81
2022/01/25 03:27:45;;;;;;;267.30;104.77;;;;;;;;;;4954142;28;20537;-81
2022/01/25 03:30:12;;;;;;;281.10;107.23;;;;;;;;;;4954154;28;20466;-81
2022/01/25 03:32:38;;;;;;;253.90;100.73;;;;;;;;;;4953676;28;20429;-81
2022/01/25 03:35:04;;;;;;;279.63;106.43;;;;;;;;;;4954949;28;20418;-81
2022/01/25 03:37:30;;;;;;;253.67;102.70;;;;;;;;;;4955438;28;21250;-81
2022/01/25 03:39:57;;;;;;;264.43;102.70;;;;;;;;;;4951026;28;21384;-81
2022/01/25 03:42:24;;;;;;;236.63;96.27;;;;;;;;;;4954516;28;20418;-81
2022/01/25 03:44:50;;;;;;;253.93;104.13;;;;;;;;;;4967805;28;21162;-81
2022/01/25 03:47:20;;;;;;;264.50;105.97;;;;;;;;;;4951882;28;20429;-81
2022/01/25 03:49:52;;;;;;;256.33;101.93;;;;;;;;;;4954679;28;21354;-81
2022/01/25 03:52:24;;;;;;;267.47;107.50;;;;;;;;;;4955609;28;20414;-80
2022/01/25 03:54:50;;;;;;;272.70;102.63;;;;;;;;;;4950092;28;20529;-81
2022/01/25 03:57:17;;;;;;;284.83;106.03;;;;;;;;;;4953987;28;20425;-81
2022/01/25 03:59:44;;;;;;;272.77;107.47;;;;;;;;;;4954568;28;20438;-80
2022/01/25 04:02:11;;;;;;;256.90;102.87;;;;;;;;;;4952520;28;20426;-81
2022/01/25 04:04:37;;;;;;;235.83;96.13;;;;;;;;;;4956041;28;20492;-81
2022/01/25 04:07:12;;;;;;;258.33;101.43;;;;;;;;;;4950853;28;21279;-79
2022/01/25 04:09:38;;;;;;;256.97;97.23;;;;;;;;;;4954255;28;20541;-80
2022/01/25 04:12:05;;;;;;;255.97;99.50;;;;;;;;;;4953079;28;20489;-80
2022/01/25 04:14:31;;;;;;;253.27;101.47;;;;;;;;;;4951166;28;20422;-80
2022/01/25 04:17:02;;;;;;;233.47;95.07;;;;;;;;;;4953952;28;20544;-80
2022/01/25 04:25:24;;;;;;;284.23;102.03;;;;;;;;;;4952461;28;20452;-80
2022/01/25 04:27:25;;;;;;;264.20;99.13;;;;;;;;;;4952457;28;21118;-80
2022/01/25 04:29:52;;;;;;;275.97;102.10;;;;;;;;;;4954915;28;21339;-80
2022/01/25 04:32:20;;;;;;;304.83;104.73;;;;;;;;;;4950723;28;20426;-80
2022/01/25 04:35:08;;;;;;;238.93;97.57;;;;;;;;;;4952772;28;20477;-80
2022/01/25 04:48:57;;;;;;;295.30;103.40;;;;;;;;;;4953306;28;20454;-80
2022/01/25 04:52:29;;;;;;;316.60;109.73;;;;;;;;;;4952701;28;20422;-80
2022/01/25 04:59:46;;;;;;;305.50;108.03;;;;;;;;;;4952874;28;20529;-80
2022/01/25 05:02:17;;;;;;;313.50;109.43;;;;;;;;;;4971788;28;20429;-80
2022/01/25 05:04:50;;;;;;;332.53;112.87;;;;;;;;;;4957583;28;20418;-80
2022/01/25 05:09:47;;;;;;;276.13;98.90;;;;;;;;;;4955218;28;20445;-80
2022/01/25 05:12:15;;;;;;;317.23;106.40;;;;;;;;;;4955259;28;21052;-80
2022/01/25 05:14:58;;;;;;;267.70;98.17;;;;;;;;;;4952234;28;20418;-80
2022/01/25 05:17:35;;;;;;;337.30;108.20;;;;;;;;;;4955233;28;20887;-80
2022/01/25 05:22:46;;;;;;;347.43;112.43;;;;;;;;;;4958493;28;21168;-80
2022/01/25 05:25:12;;;;;;;328.77;109.30;;;;;;;;;;4957283;28;21073;-81
2022/01/25 05:27:38;;;;;;;339.57;112.97;;;;;;;;;;4956467;28;21219;-81
2022/01/25 05:30:04;;;;;;;318.77;110.50;;;;;;;;;;4953244;28;20457;-80
2022/01/25 05:32:32;;;;;;;343.43;111.63;;;;;;;;;;4957017;28;20752;-80
2022/01/25 05:34:58;;;;;;;359.53;117.03;;;;;;;;;;4957060;28;20418;-81
2022/01/25 05:37:24;;;;;;;295.23;104.80;;;;;;;;;;4958690;28;20494;-81
2022/01/25 05:39:52;;;;;;;341.70;112.03;;;;;;;;;;4958693;28;20422;-81
2022/01/25 05:42:30;;;;;;;286.10;102.83;;;;;;;;;;4955785;28;21496;-80
2022/01/25 05:45:12;;;;;;;290.07;101.37;;;;;;;;;;4954284;28;20434;-80
2022/01/25 05:47:40;;;;;;;337.00;110.27;;;;;;;;;;4955633;28;20410;-81
2022/01/25 05:50:07;;;;;;;315.93;109.30;;;;;;;;;;4956672;28;20468;-81
2022/01/25 05:52:33;;;;;;;293.80;103.37;;;;;;;;;;4952314;28;20484;-80
2022/01/25 05:55:01;;;;;;;271.47;100.37;;;;;;;;;;4955421;28;20429;-81
2022/01/25 05:57:27;;;;;;;301.37;103.80;;;;;;;;;;4954722;28;20444;-81
2022/01/25 05:59:54;;;;;;;366.33;116.20;;;;;;;;;;4955163;28;20434;-81
2022/01/25 06:02:22;;;;;;;278.70;103.80;;;;;;;;;;4953498;28;21554;-81
2022/01/25 06:04:48;;;;;;;300.23;107.20;;;;;;;;;;4957991;28;20426;-81
2022/01/25 06:07:15;;;;;;;251.27;95.60;;;;;;;;;;4958335;28;20422;-81
2022/01/25 06:09:41;;;;;;;302.27;104.47;;;;;;;;;;4957286;28;20454;-81
2022/01/25 06:12:08;;;;;;;266.87;100.70;;;;;;;;;;4971629;28;20485;-81
2022/01/25 06:14:34;;;;;;;309.60;106.80;;;;;;;;;;4950891;28;20508;-81
2022/01/25 06:17:00;;;;;;;309.80;107.20;;;;;;;;;;4953239;28;20422;-81
2022/01/25 06:19:27;;;;;;;298.17;103.97;;;;;;;;;;4954878;28;20434;-81
2022/01/25 06:21:53;;;;;;;352.80;114.27;;;;;;;;;;4952151;28;20545;-81
2022/01/25 06:24:23;;;;;;;334.10;111.00;;;;;;;;;;4967058;28;20883;-82
2022/01/25 06:26:49;;;;;;;352.97;113.07;;;;;;;;;;4955008;28;20521;-81
2022/01/25 06:29:18;;;;;;;309.60;107.67;;;;;;;;;;4954270;28;20472;-82
2022/01/25 06:31:46;;;;;;;337.13;111.70;;;;;;;;;;4952886;28;20445;-82
2022/01/25 06:34:16;;;;;;;345.47;112.87;;;;;;;;;;4953760;28;20434;-82
2022/01/25 06:36:42;;;;;;;338.27;111.13;;;;;;;;;;4957516;28;20472;-82
2022/01/25 06:39:08;;;;;;;326.93;109.27;;;;;;;;;;4955437;28;21366;-82
2022/01/25 06:41:36;;;;;;;272.40;100.40;;;;;;;;;;4952634;28;20442;-82
2022/01/25 06:44:03;;;;;;;329.83;108.67;;;;;;;;;;4948164;28;20437;-81
2022/01/25 06:46:29;;;;;;;352.07;113.33;;;;;;;;;;4954037;28;20437;-81
2022/01/25 06:48:55;;;;;;;305.60;104.07;;;;;;;;;;4952647;28;20446;-81
2022/01/25 06:51:21;;;;;;;285.97;101.40;;;;;;;;;;4955126;28;20422;-81
2022/01/25 06:53:47;;;;;;;322.77;108.00;;;;;;;;;;4954930;28;21025;-81
2022/01/25 06:56:13;;;;;;;329.40;108.37;;;;;;;;;;4953777;28;20513;-81
2022/01/25 06:58:41;;;;;;;339.93;108.17;;;;;;;;;;4968973;28;20434;-81
2022/01/25 07:01:08;;;;;;;360.33;112.33;;;;;;;;;;4954389;28;20525;-82
2022/01/25 07:03:34;;;;;;;278.27;95.50;;;;;;;;;;4951213;28;20430;-82
2022/01/25 07:06:00;;;;;;;298.27;102.30;;;;;;;;;;4951735;28;21295;-81
2022/01/25 07:08:27;;;;;;;320.60;105.10;;;;;;;;;;4956464;28;21143;-81
2022/01/25 07:10:54;;;;;;;283.97;102.10;;;;;;;;;;4955173;28;20430;-82
2022/01/25 07:13:21;;;;;;;288.73;105.03;;;;;;;;;;4967128;28;20438;-82
2022/01/25 07:15:47;;;;;;;289.40;105.13;;;;;;;;;;4951956;28;21416;-82
2022/01/25 07:18:16;;;;;;;270.97;100.17;;;;;;;;;;4969474;28;20445;-82
2022/01/25 07:20:42;;;;;;;314.33;103.53;;;;;;;;;;4954942;28;20433;-83
2022/01/25 07:23:08;;;;;;;309.37;101.27;;;;;;;;;;4968616;28;20426;-83
2022/01/25 07:25:34;;;;;;;314.53;104.10;;;;;;;;;;4957069;28;21492;-83
2022/01/25 07:28:00;;;;;;;322.90;104.47;;;;;;;;;;4955764;28;20422;-83
2022/01/25 07:30:26;;;;;;;330.17;104.23;;;;;;;;;;4952577;28;20644;-83
2022/01/25 07:32:53;;;;;;;308.50;103.43;;;;;;;;;;4966688;28;20762;-83
2022/01/25 07:35:19;;;;;;;283.40;96.17;;;;;;;;;;4949369;28;20418;-82
2022/01/25 07:37:45;;;;;;;302.00;101.43;;;;;;;;;;4948185;28;20426;-87
2022/01/25 07:40:12;;;;;;;282.93;96.77;;;;;;;;;;4949502;28;20465;-85
2022/01/25 07:42:40;;;;;;;313.90;104.37;;;;;;;;;;4962375;28;20847;-86
2022/01/25 07:45:09;;;;;;;295.60;101.50;;;;;;;;;;4961639;28;20443;-85
2022/01/25 07:47:36;;;;;;;315.27;100.33;;;;;;;;;;4953688;28;21486;-84
2022/01/25 07:50:03;;;;;;;301.80;99.47;;;;;;;;;;4949309;28;20528;-85
2022/01/25 07:52:29;;;;;;;290.47;97.10;;;;;;;;;;4954733;28;20441;-86
2022/01/25 07:54:55;;;;;;;263.53;93.23;;;;;;;;;;4952911;28;20441;-86
2022/01/25 07:57:21;;;;;;;322.77;99.67;;;;;;;;;;4955112;28;20429;-86
2022/01/25 07:59:48;;;;;;;274.93;92.77;;;;;;;;;;4956525;28;20434;-86
2022/01/25 08:02:16;;;;;;;303.17;96.53;;;;;;;;;;4949877;28;20430;-86
2022/01/25 08:04:42;;;;;;;326.33;99.53;;;;;;;;;;4951092;28;21209;-86
2022/01/25 08:07:08;;;;;;;291.33;92.13;;;;;;;;;;4950715;28;20433;-86
2022/01/25 08:09:34;;;;;;;269.23;89.87;;;;;;;;;;4954241;28;21341;-86
2022/01/25 08:12:01;;;;;;;281.97;91.60;;;;;;;;;;4951982;28;20442;-85
2022/01/25 08:14:27;;;;;;;296.33;91.80;;;;;;;;;;4952563;28;20418;-85
2022/01/25 08:16:53;;;;;;;235.33;82.90;;;;;;;;;;4967782;28;21437;-85
2022/01/25 08:19:20;;;;;;;228.17;81.57;;;;;;;;;;4951875;28;20434;-85
2022/01/25 08:21:46;;;;;;;284.07;85.60;;;;;;;;;;4966038;28;20630;-85
2022/01/25 08:24:13;;;;;;;242.93;84.13;;;;;;;;;;4954764;28;20422;-84
2022/01/25 08:26:40;;;;;;;244.27;82.87;;;;;;;;;;4953472;28;20448;-84
2022/01/25 08:29:07;;;;;;;217.07;77.30;;;;;;;;;;4951263;28;20871;-84
2022/01/25 08:31:34;;;;;;;264.00;83.90;;;;;;;;;;4953316;28;20414;-85
2022/01/25 08:34:00;;;;;;;224.07;79.03;;;;;;;;;;4951485;28;21137;-85
2022/01/25 08:36:27;;;;;;;202.67;74.13;;;;;;;;;;4951026;28;20434;-85
2022/01/25 08:38:53;;;;;;;220.90;76.53;;;;;;;;;;4953805;28;21037;-85
2022/01/25 08:41:20;;;;;;;217.77;77.63;;;;;;;;;;4952130;28;20441;-85
2022/01/25 08:43:46;;;;;;;200.00;74.33;;;;;;;;;;4952989;28;20441;-86
2022/01/25 08:46:12;;;;;;;212.37;75.23;;;;;;;;;;4951607;28;20495;-85
2022/01/25 08:48:39;;;;;;;186.13;68.87;;;;;;;;;;4953602;28;20462;-85
2022/01/25 08:51:05;;;;;;;197.77;69.70;;;;;;;;;;4956282;28;20434;-85
2022/01/25 08:53:31;;;;;;;189.90;70.17;;;;;;;;;;4956141;28;20498;-84
2022/01/25 08:55:58;;;;;;;177.23;64.37;;;;;;;;;;4951525;28;20429;-85
2022/01/25 08:58:24;;;;;;;177.50;65.83;;;;;;;;;;4953035;28;20434;-85
2022/01/25 09:00:50;;;;;;;170.63;63.97;;;;;;;;;;4950408;28;20454;-85
2022/01/25 09:03:16;;;;;;;170.10;65.60;;;;;;;;;;4951889;28;20419;-84
2022/01/25 09:05:42;;;;;;;160.17;62.10;;;;;;;;;;4950695;28;20472;-84
2022/01/25 09:08:09;;;;;;;154.43;60.77;;;;;;;;;;4951426;28;20418;-85
2022/01/25 09:10:35;;;;;;;163.17;64.57;;;;;;;;;;4950199;28;20527;-85
2022/01/25 09:13:02;;;;;;;172.03;63.40;;;;;;;;;;4953086;28;21244;-85
2022/01/25 09:15:30;;;;;;;155.53;60.03;;;;;;;;;;4952457;28;20426;-85
2022/01/25 09:17:56;;;;;;;147.07;60.97;;;;;;;;;;4950430;28;20440;-85
2022/01/25 09:20:22;;;;;;;159.87;60.47;;;;;;;;;;4949944;28;20480;-84
2022/01/25 09:22:48;;;;;;;156.77;64.03;;;;;;;;;;4952123;28;20433;-84
2022/01/25 09:25:14;;;;;;;162.27;65.37;;;;;;;;;;4951806;28;21302;-84
2022/01/25 09:27:41;;;;;;;165.27;63.83;;;;;;;;;;4949350;28;20440;-85
2022/01/25 09:30:07;;;;;;;164.07;62.60;;;;;;;;;;4953747;28;20475;-85
2022/01/25 09:32:33;;;;;;;157.13;61.57;;;;;;;;;;4950686;28;21295;-85
2022/01/25 09:34:59;;;;;;;147.57;61.43;;;;;;;;;;4954320;28;20410;-85
2022/01/25 09:37:26;;;;;;;152.23;62.03;;;;;;;;;;4953397;28;20497;-85
2022/01/25 09:39:52;;;;;;;152.83;61.60;;;;;;;;;;4951934;28;21198;-86
2022/01/25 09:42:20;;;;;;;153.27;59.90;;;;;;;;;;4953764;28;20425;-86
2022/01/25 09:44:46;;;;;;;158.20;62.23;;;;;;;;;;4951100;28;20438;-85
2022/01/25 09:47:12;;;;;;;155.83;60.77;;;;;;;;;;4957368;28;21372;-85
2022/01/25 09:49:38;;;;;;;153.27;60.20;;;;;;;;;;4958083;28;20447;-85
2022/01/25 09:52:06;;;;;;;148.43;60.00;;;;;;;;;;4957401;28;21372;-85
2022/01/25 09:54:33;;;;;;;152.97;59.40;;;;;;;;;;4956458;28;20422;-85
2022/01/25 09:57:00;;;;;;;152.47;59.33;;;;;;;;;;4956309;28;20541;-86
2022/01/25 09:59:26;;;;;;;140.77;53.40;;;;;;;;;;4955244;28;20504;-85
2022/01/25 10:01:53;;;;;;;151.50;56.60;;;;;;;;;;4956701;28;20422;-85
2022/01/25 10:04:30;;;;;;;136.67;53.80;;;;;;;;;;4951690;28;20442;-85
2022/01/25 10:06:57;;;;;;;132.30;50.90;;;;;;;;;;4957274;28;20429;-84
2022/01/25 10:09:25;;;;;;;136.43;50.47;;;;;;;;;;4958785;28;20454;-85
2022/01/25 10:11:51;;;;;;;133.40;49.23;;;;;;;;;;4958460;28;20421;-85
2022/01/25 10:14:18;;;;;;;129.67;48.20;;;;;;;;;;4955240;28;20452;-85
2022/01/25 10:16:45;;;;;;;126.20;49.83;;;;;;;;;;4956305;28;20426;-85
2022/01/25 10:19:12;;;;;;;137.97;51.93;;;;;;;;;;4956533;28;20457;-84
2022/01/25 10:21:39;;;;;;;130.53;52.37;;;;;;;;;;4958089;28;21046;-85
2022/01/25 10:24:06;;;;;;;142.17;53.00;;;;;;;;;;4954300;28;20425;-85
2022/01/25 10:26:39;;;;;;;131.00;50.53;;;;;;;;;;4947998;28;20418;-85
2022/01/25 10:29:17;;;;;;;129.27;50.47;;;;;;;;;;4955488;28;20489;-85
2022/01/25 10:31:44;;;;;;;128.63;51.30;;;;;;;;;;4955373;28;21327;-86
2022/01/25 10:34:12;;;;;;;128.63;50.07;;;;;;;;;;4955448;28;21248;-85
2022/01/25 10:36:45;;;;;;;119.33;47.83;;;;;;;;;;4957926;28;20409;-85
2022/01/25 10:39:12;;;;;;;135.37;50.40;;;;;;;;;;4955152;28;20450;-86
2022/01/25 10:41:39;;;;;;;142.23;51.70;;;;;;;;;;4954083;28;20441;-85
2022/01/25 10:44:09;;;;;;;139.13;51.80;;;;;;;;;;4956349;28;20414;-85
2022/01/25 10:46:35;;;;;;;138.07;54.00;;;;;;;;;;4955434;28;20421;-84
2022/01/25 10:49:05;;;;;;;128.87;51.60;;;;;;;;;;4953831;28;20450;-85
2022/01/25 10:51:35;;;;;;;124.90;48.70;;;;;;;;;;4970207;28;21045;-86
2022/01/25 10:54:01;;;;;;;126.30;50.63;;;;;;;;;;4972111;28;20508;-85
2022/01/25 10:56:33;;;;;;;125.63;49.33;;;;;;;;;;4953638;28;20422;-85
2022/01/25 10:59:03;;;;;;;127.13;47.77;;;;;;;;;;4955599;28;21405;-86
2022/01/25 11:01:39;;;;;;;122.57;48.00;;;;;;;;;;4960147;28;20859;-86
2022/01/25 11:04:10;;;;;;;130.60;48.50;;;;;;;;;;4966055;28;20552;-85
2022/01/25 11:06:37;;;;;;;115.10;46.70;;;;;;;;;;4955314;28;20501;-85
2022/01/25 11:09:06;;;;;;;120.87;47.20;;;;;;;;;;4953393;28;20464;-84
2022/01/25 11:11:37;;;;;;;129.97;49.97;;;;;;;;;;4952364;28;20458;-86
2022/01/25 11:16:49;;;;;;;125.70;48.73;;;;;;;;;;4954438;28;20886;-86
2022/01/25 11:19:15;;;;;;;116.03;45.87;;;;;;;;;;4949610;28;20445;-85
2022/01/25 11:21:43;;;;;;;109.13;45.47;;;;;;;;;;4949834;28;20453;-85
2022/01/25 11:24:12;;;;;;;116.70;46.87;;;;;;;;;;4955778;28;21293;-86
2022/01/25 11:26:38;;;;;;;107.93;43.60;;;;;;;;;;4957659;28;20432;-85
2022/01/25 11:29:04;;;;;;;108.27;43.87;;;;;;;;;;4954827;28;21208;-85
2022/01/25 11:31:31;;;;;;;111.83;43.73;;;;;;;;;;4952940;28;20422;-85
2022/01/25 11:33:58;;;;;;;108.20;43.60;;;;;;;;;;4954173;28;20418;-85
2022/01/25 11:36:24;;;;;;;95.40;40.63;;;;;;;;;;4956616;28;20421;-85
2022/01/25 11:38:52;;;;;;;104.67;41.80;;;;;;;;;;4952375;28;20433;-86
2022/01/25 11:41:19;;;;;;;108.63;43.27;;;;;;;;;;4967557;28;20422;-86
2022/01/25 11:44:05;;;;;;;95.77;40.77;;;;;;;;;;4968944;28;20418;-85
2022/01/25 11:46:31;;;;;;;94.33;40.13;;;;;;;;;;4950993;28;20426;-85
2022/01/25 11:49:00;;;;;;;107.33;41.93;;;;;;;;;;4948038;28;20501;-84
2022/01/25 11:51:26;;;;;;;108.03;44.37;;;;;;;;;;4968445;28;20434;-84
2022/01/25 11:53:53;;;;;;;101.53;42.10;;;;;;;;;;4952141;28;20430;-85
2022/01/25 11:56:19;;;;;;;104.03;43.90;;;;;;;;;;4952273;28;20422;-84
2022/01/25 11:58:55;;;;;;;109.53;42.73;;;;;;;;;;4949891;28;21306;-83
2022/01/25 12:01:23;;;;;;;107.90;42.50;;;;;;;;;;4954724;28;21385;-84
2022/01/25 12:03:56;;;;;;;110.77;43.40;;;;;;;;;;4954284;28;20434;-83
2022/01/25 12:06:28;;;;;;;106.60;44.70;;;;;;;;;;4951435;28;20415;-83
2022/01/25 12:09:07;;;;;;;109.80;45.10;;;;;;;;;;4950826;28;20516;-85
2022/01/25 12:11:36;;;;;;;107.77;43.70;;;;;;;;;;4953422;28;20429;-83
2022/01/25 12:14:23;;;;;;;103.63;44.33;;;;;;;;;;4952690;28;20438;-83
2022/01/25 12:17:12;;;;;;;97.80;43.20;;;;;;;;;;4951461;28;20545;-83
2022/01/25 12:19:46;;;;;;;105.83;43.97;;;;;;;;;;4945136;28;20438;-83
2022/01/25 12:22:28;;;;;;;109.33;46.20;;;;;;;;;;4951614;28;20461;-83
2022/01/25 12:27:40;;;;;;;101.90;45.37;;;;;;;;;;4953806;28;20500;-84
2022/01/25 12:30:16;;;;;;;111.17;45.30;;;;;;;;;;4966703;28;20485;-84
2022/01/25 12:32:48;;;;;;;111.87;45.10;;;;;;;;;;4952842;28;21236;-84
2022/01/25 12:35:17;;;;;;;110.00;45.50;;;;;;;;;;4952714;28;21236;-83
2022/01/25 12:37:43;;;;;;;113.47;47.03;;;;;;;;;;4966128;28;20423;-83
2022/01/25 12:40:25;;;;;;;105.00;44.10;;;;;;;;;;4952231;28;20565;-82
2022/01/25 12:42:51;;;;;;;115.17;46.07;;;;;;;;;;4954435;28;21022;-82
2022/01/25 12:45:18;;;;;;;105.50;44.77;;;;;;;;;;4945050;28;20442;-82
2022/01/25 12:47:57;;;;;;;112.83;46.97;;;;;;;;;;4953801;28;20426;-82
2022/01/25 12:50:24;;;;;;;111.43;46.80;;;;;;;;;;4952120;28;20453;-82
2022/01/25 12:52:50;;;;;;;113.33;47.00;;;;;;;;;;4952068;28;20882;-83
2022/01/25 12:55:22;;;;;;;115.63;46.27;;;;;;;;;;4950546;28;20430;-82
2022/01/25 12:57:50;;;;;;;108.33;46.80;;;;;;;;;;4951531;28;21482;-81
2022/01/25 13:00:16;;;;;;;115.63;47.37;;;;;;;;;;4965647;28;20433;-82
2022/01/25 13:02:42;;;;;;;108.00;46.70;;;;;;;;;;4967233;28;20426;-83
2022/01/25 13:05:19;;;;;;;111.03;47.93;;;;;;;;;;4951187;28;20430;-83
2022/01/25 13:07:46;;;;;;;112.93;48.50;;;;;;;;;;4952481;28;20430;-83
2022/01/25 13:10:23;;;;;;;102.03;46.40;;;;;;;;;;4949663;28;20458;-82
2022/01/25 13:12:58;;;;;;;108.63;47.63;;;;;;;;;;4953802;28;20426;-82
2022/01/25 13:18:11;;;;;;;113.87;48.23;;;;;;;;;;4952156;28;20426;-83
2022/01/25 13:20:37;;;;;;;112.10;49.30;;;;;;;;;;4953340;28;20423;-83
2022/01/25 13:23:03;;;;;;;119.07;50.37;;;;;;;;;;4955835;28;20428;-83
2022/01/25 13:28:21;;;;;;;105.93;46.47;;;;;;;;;;4953932;28;20698;-84
2022/01/25 13:30:49;;;;;;;110.03;47.40;;;;;;;;;;4973448;28;20445;-83
2022/01/25 13:33:19;;;;;;;108.60;47.63;;;;;;;;;;4955231;28;20410;-83
2022/01/25 13:35:53;;;;;;;103.07;47.73;;;;;;;;;;4971300;28;21170;-83
2022/01/25 13:38:26;;;;;;;97.70;44.23;;;;;;;;;;4955092;28;20449;-83
2022/01/25 13:45:44;;;;;;;96.37;44.27;;;;;;;;;;4956450;28;20509;-82
2022/01/25 13:46:20;;;;;;;96.10;44.13;;;;;;;;;;4952367;28;20512;-83
2022/01/25 13:48:47;;;;;;;97.13;45.40;;;;;;;;;;4952271;28;20878;-83
2022/01/25 13:51:33;;;;;;;91.47;43.40;;;;;;;;;;4955937;28;21419;-82
2022/01/25 13:54:00;;;;;;;95.77;42.10;;;;;;;;;;4949166;28;20509;-83
2022/01/25 13:56:31;;;;;;;88.47;43.53;;;;;;;;;;4954627;28;20553;-83
2022/01/25 13:58:58;;;;;;;98.07;44.40;;;;;;;;;;4953482;28;20434;-83
2022/01/25 14:01:25;;;;;;;89.47;43.40;;;;;;;;;;4955167;28;20427;-82
2022/01/25 14:04:02;;;;;;;89.07;42.03;;;;;;;;;;4955066;28;20434;-83
2022/01/25 14:06:48;;;;;;;90.50;43.53;;;;;;;;;;4956660;28;21352;-83
2022/01/25 14:09:24;;;;;;;92.47;43.80;;;;;;;;;;4945125;28;21316;-82
2022/01/25 14:21:33;;;;;;;86.43;41.60;;;;;;;;;;4956111;28;21013;-82
2022/01/25 14:25:48;;;;;;;84.73;40.73;;;;;;;;;;4954829;28;20426;-83
2022/01/25 14:28:25;;;;;;;85.33;41.33;;;;;;;;;;4953121;28;20461;-83
2022/01/25 14:30:53;;;;;;;88.23;42.13;;;;;;;;;;4969741;28;20449;-83
2022/01/25 14:33:27;;;;;;;89.30;41.40;;;;;;;;;;4951145;28;20415;-83
2022/01/25 14:35:56;;;;;;;94.27;41.83;;;;;;;;;;4951252;28;20430;-83
2022/01/25 14:38:27;;;;;;;85.57;40.53;;;;;;;;;;4954144;28;20421;-83
2022/01/25 14:40:58;;;;;;;81.30;40.97;;;;;;;;;;4953228;28;20422;-83
2022/01/25 14:43:25;;;;;;;91.73;42.27;;;;;;;;;;4956867;28;20422;-83
2022/01/25 14:45:59;;;;;;;98.63;44.20;;;;;;;;;;4971555;28;20453;-83
2022/01/25 14:48:25;;;;;;;91.33;45.13;;;;;;;;;;4954517;28;20429;-82
2022/01/25 14:50:59;;;;;;;96.33;44.80;;;;;;;;;;4954232;28;20462;-82
2022/01/25 14:53:25;;;;;;;92.70;43.30;;;;;;;;;;4968022;28;20419;-83
2022/01/25 14:55:52;;;;;;;97.40;44.53;;;;;;;;;;4954268;28;20414;-84
2022/01/25 15:00:51;;;;;;;99.93;45.73;;;;;;;;;;4957989;28;20433;-84
2022/01/25 15:03:17;;;;;;;95.60;43.93;;;;;;;;;;4958235;28;21185;-84
2022/01/25 15:05:45;;;;;;;94.47;43.80;;;;;;;;;;4957140;28;20525;-84
2022/01/25 15:08:12;;;;;;;90.63;42.97;;;;;;;;;;4949909;28;20426;-83
2022/01/25 15:10:43;;;;;;;96.50;44.90;;;;;;;;;;4956171;28;20446;-85
2022/01/25 15:13:10;;;;;;;93.37;43.30;;;;;;;;;;4952667;28;21331;-84
2022/01/25 15:18:36;;;;;;;93.80;44.00;;;;;;;;;;4959848;28;21230;-84
2022/01/25 15:21:06;;;;;;;90.30;43.63;;;;;;;;;;4970938;28;21141;-83
2022/01/25 15:23:34;;;;;;;98.00;44.13;;;;;;;;;;4954914;28;20449;-83
2022/01/25 15:26:02;;;;;;;89.33;43.33;;;;;;;;;;4952039;28;20469;-84
2022/01/25 15:28:41;;;;;;;86.43;43.83;;;;;;;;;;4952913;28;20465;-84
2022/01/25 15:31:09;;;;;;;95.87;43.67;;;;;;;;;;4951140;28;20434;-84
2022/01/25 15:33:35;;;;;;;103.37;45.57;;;;;;;;;;4967299;28;20994;-84
2022/01/25 15:36:02;;;;;;;89.07;42.17;;;;;;;;;;4953099;28;20457;-84
2022/01/25 15:38:28;;;;;;;93.67;44.50;;;;;;;;;;4955257;28;20448;-83
2022/01/25 15:40:55;;;;;;;92.43;43.57;;;;;;;;;;4951916;28;20433;-83
2022/01/25 15:43:23;;;;;;;101.43;46.47;;;;;;;;;;4952632;28;20430;-83
2022/01/25 15:46:03;;;;;;;95.27;44.80;;;;;;;;;;4950201;28;20433;-83
2022/01/25 15:48:30;;;;;;;100.87;46.77;;;;;;;;;;4948712;28;20426;-82
2022/01/25 15:50:56;;;;;;;110.47;48.57;;;;;;;;;;4949649;28;20543;-82
2022/01/25 15:53:23;;;;;;;88.50;43.03;;;;;;;;;;4963875;28;20438;-83
2022/01/25 15:55:49;;;;;;;85.03;42.57;;;;;;;;;;4965877;28;20859;-83
2022/01/25 15:58:16;;;;;;;96.77;44.53;;;;;;;;;;4949125;28;20476;-82
2022/01/25 16:00:48;;;;;;;105.77;48.30;;;;;;;;;;4951275;28;20496;-83
2022/01/25 16:03:19;;;;;;;87.17;42.13;;;;;;;;;;4966016;28;20441;-82
2022/01/25 16:05:45;;;;;;;91.20;43.90;;;;;;;;;;4951711;28;20430;-82
2022/01/25 16:08:14;;;;;;;88.17;41.87;;;;;;;;;;4965699;28;20481;-82
2022/01/25 16:10:40;;;;;;;92.40;42.80;;;;;;;;;;4951436;28;20556;-83
2022/01/25 16:13:07;;;;;;;94.70;45.77;;;;;;;;;;4954055;28;21396;-83
2022/01/25 16:15:33;;;;;;;94.97;45.00;;;;;;;;;;4964739;28;20430;-83
2022/01/25 16:17:59;;;;;;;95.27;45.30;;;;;;;;;;4949924;28;20648;-84
2022/01/25 16:20:27;;;;;;;105.40;47.90;;;;;;;;;;4951647;28;20430;-85